createdAt,value
2018-09-13T00:00:17.745Z,6.50
2018-09-13T00:02:46.253Z,6.27
2018-09-13T00:05:14.612Z,6.33
2018-09-13T00:07:43.842Z,8.20
2018-09-13T00:10:12.224Z,6.67
2018-09-13T00:12:40.866Z,6.40
2018-09-13T00:15:09.233Z,9.73
2018-09-13T00:17:37.691Z,7.83
2018-09-13T00:20:06.344Z,5.73
2018-09-13T00:22:34.662Z,7.00
2018-09-13T00:25:03.017Z,5.33
2018-09-13T00:27:31.380Z,5.23
2018-09-13T00:29:59.711Z,5.00
2018-09-13T00:32:28.048Z,5.40
2018-09-13T00:34:56.467Z,7.27
2018-09-13T00:37:24.795Z,7.53
2018-09-13T00:39:53.124Z,5.23
2018-09-13T00:42:21.516Z,6.27
2018-09-13T00:44:50.218Z,5.07
2018-09-13T00:47:18.577Z,6.77
2018-09-13T00:49:47.049Z,7.00
2018-09-13T00:52:15.492Z,6.03
2018-09-13T00:54:43.811Z,7.13
2018-09-13T00:57:12.295Z,5.37
2018-09-13T00:59:40.673Z,6.93
2018-09-13T01:02:09.102Z,5.67
2018-09-13T01:04:37.513Z,5.70
2018-09-13T01:07:06.193Z,5.93
2018-09-13T01:09:34.661Z,5.97
2018-09-13T01:12:03.047Z,5.90
2018-09-13T01:14:31.599Z,5.70
2018-09-13T01:16:59.926Z,7.13
2018-09-13T01:19:28.332Z,7.23
2018-09-13T01:21:56.743Z,9.37
2018-09-13T01:24:25.103Z,5.73
2018-09-13T01:26:53.491Z,6.97
2018-09-13T01:29:21.820Z,5.30
2018-09-13T01:31:50.144Z,8.67
2018-09-13T01:34:18.812Z,6.77
2018-09-13T01:36:47.149Z,6.90
2018-09-13T01:39:15.548Z,7.87
2018-09-13T01:41:44.168Z,5.27
2018-09-13T01:44:12.548Z,5.63
2018-09-13T01:46:41.444Z,6.37
2018-09-13T01:49:09.820Z,5.60
2018-09-13T01:51:38.132Z,5.40
2018-09-13T01:54:06.930Z,7.07
2018-09-13T01:56:35.413Z,8.97
2018-09-13T01:59:03.952Z,5.20
2018-09-13T02:01:32.316Z,5.40
2018-09-13T02:04:00.800Z,7.83
2018-09-13T02:06:29.187Z,6.40
2018-09-13T02:08:57.560Z,6.07
2018-09-13T02:11:25.925Z,7.43
2018-09-13T02:13:54.337Z,5.73
2018-09-13T02:16:22.962Z,7.13
2018-09-13T02:18:51.375Z,7.27
2018-09-13T02:21:19.767Z,8.40
2018-09-13T02:23:48.094Z,5.50
2018-09-13T02:26:16.455Z,7.03
2018-09-13T02:28:44.844Z,9.00
2018-09-13T02:31:13.177Z,7.00
2018-09-13T02:33:41.867Z,9.07
2018-09-13T02:36:10.305Z,7.67
2018-09-13T02:38:38.740Z,8.03
2018-09-13T02:41:07.187Z,7.60
2018-09-13T02:43:36.527Z,12.17
2018-09-13T02:46:04.973Z,11.37
2018-09-13T02:48:33.331Z,8.77
2018-09-13T02:51:01.787Z,12.07
2018-09-13T02:53:30.122Z,8.53
2018-09-13T02:55:59.048Z,9.00
2018-09-13T02:58:27.811Z,8.20
2018-09-13T03:00:56.127Z,7.47
2018-09-13T03:03:24.601Z,7.20
2018-09-13T03:05:52.918Z,9.03
2018-09-13T03:08:21.321Z,8.37
2018-09-13T03:10:49.682Z,8.43
2018-09-13T03:13:18.132Z,8.00
2018-09-13T03:15:46.546Z,7.40
2018-09-13T03:18:15.066Z,9.53
2018-09-13T03:20:43.556Z,10.97
2018-09-13T03:23:11.987Z,11.77
2018-09-13T03:25:40.361Z,10.17
2018-09-13T03:28:08.770Z,13.83
2018-09-13T03:30:37.192Z,12.40
2018-09-13T03:33:05.729Z,10.43
2018-09-13T03:35:34.062Z,10.00
2018-09-13T03:38:02.389Z,10.00
2018-09-13T03:40:30.986Z,8.93
2018-09-13T03:42:59.548Z,11.43
2018-09-13T03:45:27.906Z,12.77
2018-09-13T03:47:56.335Z,9.13
2018-09-13T03:50:24.695Z,17.90
2018-09-13T03:52:53.283Z,9.60
2018-09-13T03:55:21.666Z,9.90
2018-09-13T03:57:50.013Z,8.63
2018-09-13T04:00:18.539Z,8.30
2018-09-13T04:02:47.068Z,9.10
2018-09-13T04:05:15.443Z,5.63
2018-09-13T04:07:43.823Z,6.23
2018-09-13T04:10:12.252Z,6.60
2018-09-13T04:12:40.677Z,5.23
2018-09-13T04:15:09.047Z,5.50
2018-09-13T04:17:37.941Z,4.97
2018-09-13T04:20:06.318Z,5.80
2018-09-13T04:22:34.678Z,6.00
2018-09-13T04:25:03.119Z,5.87
2018-09-13T04:27:31.569Z,8.43
2018-09-13T04:30:00.055Z,8.67
2018-09-13T04:32:28.459Z,6.40
2018-09-13T04:34:56.783Z,9.37
2018-09-13T04:37:25.119Z,7.77
2018-09-13T04:39:53.495Z,8.50
2018-09-13T04:42:22.020Z,8.87
2018-09-13T04:44:50.410Z,9.10
2018-09-13T04:47:18.868Z,5.80
2018-09-13T04:49:47.317Z,6.23
2018-09-13T04:52:15.867Z,7.10
2018-09-13T04:54:44.845Z,5.57
2018-09-13T04:57:13.197Z,9.07
2018-09-13T04:59:41.507Z,9.77
2018-09-13T05:02:09.925Z,9.23
2018-09-13T05:04:38.291Z,11.30
2018-09-13T05:07:06.768Z,8.60
2018-09-13T05:09:35.324Z,8.90
2018-09-13T05:12:03.723Z,8.57
2018-09-13T05:14:32.157Z,9.37
2018-09-13T05:17:00.615Z,11.93
2018-09-13T05:19:29.147Z,7.37
2018-09-13T05:21:57.623Z,8.70
2018-09-13T05:24:26.187Z,8.07
2018-09-13T05:26:54.601Z,10.67
2018-09-13T05:29:22.979Z,9.80
2018-09-13T05:31:51.379Z,10.10
2018-09-13T05:34:19.692Z,9.47
2018-09-13T05:36:48.128Z,11.10
2018-09-13T05:39:16.535Z,9.80
2018-09-13T05:41:44.993Z,12.30
2018-09-13T05:44:13.958Z,7.73
2018-09-13T05:46:42.387Z,12.27
2018-09-13T05:49:10.828Z,8.90
2018-09-13T05:51:39.507Z,8.40
2018-09-13T05:54:07.949Z,7.43
2018-09-13T05:56:36.364Z,8.47
2018-09-13T05:59:04.711Z,9.40
2018-09-13T06:01:33.127Z,9.43
2018-09-13T06:04:01.449Z,7.47
2018-09-13T06:06:29.875Z,12.23
2018-09-13T06:08:58.460Z,10.13
2018-09-13T06:11:26.856Z,12.93
2018-09-13T06:13:55.233Z,6.90
2018-09-13T06:16:23.796Z,7.00
2018-09-13T06:18:52.120Z,12.13
2018-09-13T06:21:20.448Z,8.20
2018-09-13T06:23:48.903Z,7.40
2018-09-13T06:26:17.312Z,9.87
2018-09-13T06:28:45.663Z,8.47
2018-09-13T06:31:14.132Z,10.20
2018-09-13T06:33:42.476Z,12.10
2018-09-13T06:36:10.824Z,9.60
2018-09-13T06:38:39.181Z,8.07
2018-09-13T06:41:07.582Z,7.47
2018-09-13T06:43:35.964Z,8.57
2018-09-13T06:46:04.362Z,7.90
2018-09-13T06:48:32.871Z,10.80
2018-09-13T06:51:01.215Z,8.77
2018-09-13T06:53:29.640Z,10.93
2018-09-13T06:55:57.989Z,8.43
2018-09-13T06:58:26.418Z,8.53
2018-09-13T07:00:54.930Z,8.47
2018-09-13T07:03:23.310Z,10.70
2018-09-13T07:05:51.680Z,10.63
2018-09-13T07:08:20.094Z,8.57
2018-09-13T07:10:48.500Z,8.83
2018-09-13T07:13:16.933Z,7.07
2018-09-13T07:15:45.358Z,8.43
2018-09-13T07:18:13.916Z,7.43
2018-09-13T07:20:43.397Z,10.13
2018-09-13T07:23:11.805Z,7.63
2018-09-13T07:25:40.368Z,7.33
2018-09-13T07:28:08.733Z,10.67
2018-09-13T07:30:37.110Z,7.97
2018-09-13T07:33:05.503Z,11.67
2018-09-13T07:35:33.889Z,9.83
2018-09-13T07:38:02.296Z,6.73
2018-09-13T07:40:30.713Z,10.90
2018-09-13T07:42:59.161Z,8.63
2018-09-13T07:45:27.542Z,10.50
2018-09-13T07:47:56.116Z,9.13
2018-09-13T07:50:24.599Z,7.87
2018-09-13T07:52:53.526Z,10.07
2018-09-13T07:55:21.958Z,9.83
2018-09-13T07:57:50.360Z,11.90
2018-09-13T08:00:18.806Z,10.73
2018-09-13T08:02:47.247Z,6.10
2018-09-13T08:05:15.631Z,5.77
2018-09-13T08:07:44.044Z,7.10
2018-09-13T08:10:12.400Z,10.67
2018-09-13T08:12:40.774Z,11.10
2018-09-13T08:15:09.179Z,7.13
2018-09-13T08:17:37.617Z,9.30
2018-09-13T08:20:06.061Z,6.70
2018-09-13T08:22:34.840Z,10.13
2018-09-13T08:25:03.271Z,10.80
2018-09-13T08:27:31.684Z,11.53
2018-09-13T08:30:00.300Z,9.23
2018-09-13T08:32:28.677Z,15.03
2018-09-13T08:34:58.854Z,8.30
2018-09-13T08:37:27.259Z,13.00
2018-09-13T08:39:55.792Z,10.97
2018-09-13T08:42:24.075Z,12.30
2018-09-13T08:44:52.643Z,15.80
2018-09-13T08:47:20.966Z,9.07
2018-09-13T08:49:49.315Z,8.43
2018-09-13T08:52:17.909Z,8.70
2018-09-13T08:54:46.343Z,8.97
2018-09-13T08:57:14.856Z,15.90
2018-09-13T08:59:43.620Z,10.90
2018-09-13T09:02:12.088Z,11.53
2018-09-13T09:04:40.519Z,9.20
2018-09-13T09:07:08.915Z,7.00
2018-09-13T09:09:37.377Z,10.70
2018-09-13T09:12:05.733Z,8.73
2018-09-13T09:14:34.083Z,11.13
2018-09-13T09:17:02.494Z,9.47
2018-09-13T09:19:30.934Z,10.10
2018-09-13T09:21:59.393Z,11.43
2018-09-13T09:24:27.873Z,13.97
2018-09-13T09:26:56.307Z,9.87
2018-09-13T09:29:24.824Z,9.90
2018-09-13T09:31:53.171Z,10.40
2018-09-13T09:34:21.509Z,7.57
2018-09-13T09:36:49.967Z,10.13
2018-09-13T09:39:18.372Z,5.17
2018-09-13T09:41:46.777Z,6.07
2018-09-13T09:44:15.286Z,10.47
2018-09-13T09:46:43.554Z,6.80
2018-09-13T09:49:11.928Z,10.27
2018-09-13T09:51:40.520Z,7.73
2018-09-13T09:54:08.894Z,6.80
2018-09-13T09:56:37.216Z,6.07
2018-09-13T09:59:05.648Z,5.87
2018-09-13T10:01:35.461Z,6.53
2018-09-13T10:04:04.112Z,6.27
2018-09-13T10:06:32.568Z,6.50
2018-09-13T10:09:00.962Z,4.73
2018-09-13T10:11:29.276Z,6.77
2018-09-13T10:13:57.744Z,5.83
2018-09-13T10:16:31.328Z,5.07
2018-09-13T10:20:04.973Z,5.90
2018-09-13T10:22:38.756Z,7.00
2018-09-13T10:25:13.483Z,7.27
2018-09-13T10:27:47.195Z,4.50
2018-09-13T10:30:20.840Z,5.90
2018-09-13T10:32:54.596Z,5.70
2018-09-13T10:35:28.315Z,7.13
2018-09-13T10:38:02.072Z,6.37
2018-09-13T10:40:35.931Z,4.40
2018-09-13T10:43:09.517Z,5.03
2018-09-13T10:45:43.284Z,5.30
2018-09-13T10:48:16.792Z,4.87
2018-09-13T10:50:50.774Z,5.43
2018-09-13T10:53:22.608Z,7.50
2018-09-13T10:55:51.020Z,6.37
2018-09-13T10:58:19.600Z,4.87
2018-09-13T11:00:48.098Z,9.07
2018-09-13T11:03:16.528Z,5.43
2018-09-13T11:05:45.050Z,7.47
2018-09-13T11:08:13.380Z,6.83
2018-09-13T11:10:41.984Z,5.30
2018-09-13T11:13:14.488Z,6.13
2018-09-13T11:15:42.816Z,7.80
2018-09-13T11:18:11.176Z,8.40
2018-09-13T11:20:39.608Z,7.77
2018-09-13T11:23:08.890Z,5.23
2018-09-13T11:25:37.301Z,5.20
2018-09-13T11:28:05.927Z,5.27
2018-09-13T11:30:34.326Z,7.97
2018-09-13T11:33:02.696Z,6.23
2018-09-13T11:35:31.126Z,6.53
2018-09-13T11:37:59.464Z,6.20
2018-09-13T11:40:28.028Z,6.83
2018-09-13T11:42:56.508Z,4.67
2018-09-13T11:45:24.934Z,5.60
2018-09-13T11:47:53.371Z,8.63
2018-09-13T11:50:21.808Z,4.47
2018-09-13T11:52:50.154Z,7.97
2018-09-13T11:55:18.613Z,4.57
2018-09-13T11:57:47.051Z,8.60
2018-09-13T12:00:15.563Z,8.87
2018-09-13T12:02:43.949Z,7.23
2018-09-13T12:05:12.438Z,5.10
2018-09-13T12:07:40.765Z,5.57
2018-09-13T12:10:09.095Z,11.20
2018-09-13T12:12:37.677Z,9.33
2018-09-13T12:15:07.276Z,7.00
2018-09-13T12:17:35.646Z,4.60
2018-09-13T12:20:04.115Z,4.20
2018-09-13T12:22:32.643Z,9.30
2018-09-13T12:25:01.005Z,7.33
2018-09-13T12:27:29.720Z,7.27
2018-09-13T12:29:57.984Z,8.83
2018-09-13T12:32:26.591Z,7.10
2018-09-13T12:34:54.943Z,5.63
2018-09-13T12:37:23.389Z,7.57
2018-09-13T12:39:51.881Z,6.97
2018-09-13T12:42:20.477Z,5.87
2018-09-13T12:44:48.818Z,6.63
2018-09-13T12:47:17.318Z,7.70
2018-09-13T12:49:45.765Z,10.10
2018-09-13T12:52:14.351Z,4.80
2018-09-13T12:54:43.023Z,7.10
2018-09-13T12:57:11.547Z,5.60
2018-09-13T12:59:40.099Z,6.80
2018-09-13T13:02:08.519Z,5.43
2018-09-13T13:04:37.197Z,10.70
2018-09-13T13:07:05.529Z,5.43
2018-09-13T13:09:34.075Z,8.40
2018-09-13T13:12:02.487Z,6.63
2018-09-13T13:14:30.968Z,5.90
2018-09-13T13:16:59.402Z,6.97
2018-09-13T13:19:27.902Z,11.10
2018-09-13T13:21:56.265Z,6.73
2018-09-13T13:24:24.633Z,6.97
2018-09-13T13:26:53.110Z,6.80
2018-09-13T13:29:21.653Z,7.57
2018-09-13T13:31:50.071Z,6.57
2018-09-13T13:34:18.475Z,9.07
2018-09-13T13:36:46.815Z,8.67
2018-09-13T13:39:15.320Z,5.13
2018-09-13T13:41:44.869Z,7.47
2018-09-13T13:44:13.216Z,6.47
2018-09-13T13:46:41.669Z,7.73
2018-09-13T13:49:10.231Z,5.23
2018-09-13T13:51:38.649Z,6.27
2018-09-13T13:54:07.017Z,5.97
2018-09-13T13:56:35.436Z,5.63
2018-09-13T13:59:03.873Z,6.90
2018-09-13T14:01:32.187Z,5.87
2018-09-13T14:04:00.674Z,5.70
2018-09-13T14:06:29.014Z,6.00
2018-09-13T14:08:57.349Z,8.30
2018-09-13T14:11:25.799Z,11.43
2018-09-13T14:13:54.205Z,10.80
2018-09-13T14:16:22.690Z,8.07
2018-09-13T14:18:51.152Z,8.37
2018-09-13T14:21:19.653Z,5.97
2018-09-13T14:23:48.022Z,12.20
2018-09-13T14:26:16.640Z,6.50
2018-09-13T14:28:44.982Z,5.37
2018-09-13T14:31:13.427Z,7.53
2018-09-13T14:33:42.283Z,5.33
2018-09-13T14:36:10.627Z,5.77
2018-09-13T14:38:39.070Z,6.77
2018-09-13T14:41:07.552Z,8.00
2018-09-13T14:43:36.011Z,5.17
2018-09-13T14:46:04.513Z,5.63
2018-09-13T14:48:32.808Z,5.47
2018-09-13T14:51:01.204Z,7.17
2018-09-13T14:53:29.547Z,7.73
2018-09-13T14:55:57.972Z,6.53
2018-09-13T14:58:26.396Z,5.00
2018-09-13T15:00:54.772Z,6.73
2018-09-13T15:03:23.201Z,11.83
2018-09-13T15:05:51.643Z,6.63
2018-09-13T15:08:20.131Z,9.17
2018-09-13T15:10:48.691Z,4.90
2018-09-13T15:13:17.080Z,8.77
2018-09-13T15:15:45.421Z,6.37
2018-09-13T15:18:13.885Z,9.73
2018-09-13T15:20:42.370Z,13.20
2018-09-13T15:23:10.723Z,9.20
2018-09-13T15:25:39.214Z,5.40
2018-09-13T15:28:07.650Z,6.77
2018-09-13T15:30:36.237Z,5.07
2018-09-13T15:33:06.146Z,8.43
2018-09-13T15:35:34.521Z,9.17
2018-09-13T15:38:02.852Z,8.63
2018-09-13T15:40:31.252Z,6.70
2018-09-13T15:42:59.655Z,5.97
2018-09-13T15:45:28.037Z,6.70
2018-09-13T15:47:56.608Z,6.47
2018-09-13T15:50:25.084Z,11.23
2018-09-13T15:52:53.615Z,8.20
2018-09-13T15:55:22.064Z,8.60
2018-09-13T15:57:51.288Z,7.27
2018-09-13T16:00:19.799Z,17.90
2018-09-13T16:02:48.323Z,9.40
2018-09-13T16:05:16.782Z,7.70
2018-09-13T16:07:45.464Z,10.90
2018-09-13T16:10:13.913Z,8.60
2018-09-13T16:12:42.376Z,7.67
2018-09-13T16:15:10.882Z,5.87
2018-09-13T16:17:39.260Z,5.87
2018-09-13T16:20:07.756Z,11.07
2018-09-13T16:22:36.332Z,8.07
2018-09-13T16:25:04.741Z,7.53
2018-09-13T16:27:33.144Z,9.27
2018-09-13T16:30:01.712Z,7.70
2018-09-13T16:32:30.248Z,10.37
2018-09-13T16:34:59.664Z,7.00
2018-09-13T16:37:33.572Z,9.20
2018-09-13T16:40:07.601Z,8.23
2018-09-13T16:42:43.114Z,10.40
2018-09-13T16:45:12.056Z,11.10
2018-09-13T16:47:45.976Z,8.03
2018-09-13T16:50:14.413Z,8.23
2018-09-13T16:52:42.817Z,10.37
2018-09-13T16:55:11.309Z,12.37
2018-09-13T16:57:39.686Z,10.50
2018-09-13T17:00:08.203Z,7.20
2018-09-13T17:02:36.601Z,13.07
2018-09-13T17:05:05.043Z,16.67
2018-09-13T17:07:33.521Z,10.03
2018-09-13T17:10:01.985Z,9.70
2018-09-13T17:12:30.421Z,8.50
2018-09-13T17:14:58.885Z,10.67
2018-09-13T17:17:33.967Z,8.37
2018-09-13T17:20:02.367Z,10.50
2018-09-13T17:22:30.738Z,11.57
2018-09-13T17:24:59.410Z,6.83
2018-09-13T17:27:27.731Z,7.93
2018-09-13T17:29:56.413Z,14.33
2018-09-13T17:32:24.827Z,5.97
2018-09-13T17:34:53.237Z,9.90
2018-09-13T17:37:21.637Z,11.80
2018-09-13T17:39:50.203Z,11.20
2018-09-13T17:42:18.657Z,13.20
2018-09-13T17:44:47.105Z,10.93
2018-09-13T17:47:15.747Z,20.47
2018-09-13T17:49:44.165Z,16.67
2018-09-13T17:52:12.513Z,26.73
2018-09-13T17:54:40.935Z,20.93
2018-09-13T17:57:09.473Z,17.53
2018-09-13T17:59:37.855Z,12.07
2018-09-13T18:02:06.868Z,16.57
2018-09-13T18:04:35.324Z,11.37
2018-09-13T18:07:05.096Z,16.93
2018-09-13T18:09:33.476Z,13.10
2018-09-13T18:12:01.860Z,16.50
2018-09-13T18:14:30.181Z,12.63
2018-09-13T18:16:58.744Z,11.23
2018-09-13T18:19:29.280Z,10.27
2018-09-13T18:21:57.806Z,11.00
2018-09-13T18:24:26.456Z,12.13
2018-09-13T18:26:54.772Z,12.97
2018-09-13T18:29:23.305Z,14.27
2018-09-13T18:31:51.761Z,10.40
2018-09-13T18:34:20.225Z,12.13
2018-09-13T18:36:48.661Z,10.33
2018-09-13T18:39:19.497Z,11.77
2018-09-13T18:41:48.596Z,7.10
2018-09-13T18:44:17.059Z,12.87
2018-09-13T18:46:45.759Z,9.10
2018-09-13T18:49:14.131Z,11.80
2018-09-13T18:51:44.188Z,11.50
2018-09-13T18:54:13.647Z,7.80
2018-09-13T18:56:42.084Z,8.53
2018-09-13T18:59:10.575Z,8.80
2018-09-13T19:01:39.043Z,8.90
2018-09-13T19:04:07.686Z,8.80
2018-09-13T19:06:36.071Z,9.90
2018-09-13T19:09:06.885Z,11.13
2018-09-13T19:11:35.341Z,12.77
2018-09-13T19:14:03.970Z,11.87
2018-09-13T19:16:32.853Z,7.50
2018-09-13T19:19:01.349Z,9.73
2018-09-13T19:21:29.787Z,10.10
2018-09-13T19:23:58.444Z,10.63
2018-09-13T19:26:26.911Z,10.53
2018-09-13T19:28:55.540Z,10.63
2018-09-13T19:31:23.910Z,13.27
2018-09-13T19:33:52.467Z,10.20
2018-09-13T19:36:22.145Z,9.97
2018-09-13T19:38:50.739Z,11.70
2018-09-13T19:41:19.729Z,10.43
2018-09-13T19:43:49.734Z,10.37
2018-09-13T19:46:18.244Z,9.73
2018-09-13T19:48:48.729Z,11.43
2018-09-13T19:51:17.145Z,10.97
2018-09-13T19:53:46.059Z,9.60
2018-09-13T19:56:14.545Z,11.17
2018-09-13T19:58:42.973Z,9.30
2018-09-13T20:01:14.266Z,13.23
2018-09-13T20:03:43.417Z,9.63
2018-09-13T20:06:12.786Z,11.43
2018-09-13T20:08:41.214Z,9.07
2018-09-13T20:11:09.643Z,9.53
2018-09-13T20:13:38.040Z,8.93
2018-09-13T20:16:06.685Z,10.40
2018-09-13T20:18:36.099Z,11.23
2018-09-13T20:21:04.500Z,11.03
2018-09-13T20:23:32.927Z,8.23
2018-09-13T20:26:01.376Z,9.07
2018-09-13T20:28:29.749Z,9.93
2018-09-13T20:30:58.167Z,11.13
2018-09-13T20:33:33.358Z,10.57
2018-09-13T20:36:02.144Z,9.00
2018-09-13T20:38:31.254Z,11.70
2018-09-13T20:40:59.785Z,10.53
2018-09-13T20:43:28.267Z,13.63
2018-09-13T20:45:56.891Z,12.93
2018-09-13T20:48:26.508Z,10.27
2018-09-13T20:50:55.053Z,11.37
2018-09-13T20:53:23.399Z,10.30
2018-09-13T20:55:51.897Z,8.17
2018-09-13T20:58:20.361Z,8.43
2018-09-13T21:00:48.958Z,8.40
2018-09-13T21:03:17.277Z,9.37
2018-09-13T21:05:45.647Z,8.57
2018-09-13T21:08:15.293Z,10.63
2018-09-13T21:10:44.037Z,7.90
2018-09-13T21:13:12.469Z,7.97
2018-09-13T21:15:41.023Z,10.33
2018-09-13T21:18:09.385Z,10.90
2018-09-13T21:20:37.737Z,8.93
2018-09-13T21:23:06.525Z,9.00
2018-09-13T21:25:35.018Z,7.73
2018-09-13T21:28:03.369Z,10.40
2018-09-13T21:30:31.903Z,9.60
2018-09-13T21:33:00.393Z,12.93
2018-09-13T21:35:29.377Z,9.97
2018-09-13T21:37:57.742Z,10.40
2018-09-13T21:40:26.877Z,9.83
2018-09-13T21:42:55.407Z,9.70
2018-09-13T21:45:23.719Z,9.03
2018-09-13T21:47:52.068Z,10.73
2018-09-13T21:50:20.519Z,9.87
2018-09-13T21:52:48.827Z,7.83
2018-09-13T21:55:17.147Z,10.97
2018-09-13T21:57:45.559Z,10.10
2018-09-13T22:00:13.947Z,12.20
2018-09-13T22:02:42.653Z,9.70
2018-09-13T22:05:11.056Z,17.57
2018-09-13T22:07:40.193Z,11.93
2018-09-13T22:10:08.652Z,12.10
2018-09-13T22:12:37.106Z,9.03
2018-09-13T22:15:05.492Z,10.90
2018-09-13T22:17:33.852Z,10.17
2018-09-13T22:20:02.343Z,11.77
2018-09-13T22:22:30.676Z,11.63
2018-09-13T22:24:59.664Z,10.73
2018-09-13T22:27:28.155Z,13.07
2018-09-13T22:29:56.552Z,11.70
2018-09-13T22:32:25.092Z,14.20
2018-09-13T22:34:53.554Z,10.47
2018-09-13T22:37:22.057Z,11.73
2018-09-13T22:39:50.540Z,12.63
2018-09-13T22:42:19.048Z,14.53
2018-09-13T22:44:47.365Z,12.67
2018-09-13T22:47:15.720Z,10.80
2018-09-13T22:49:44.220Z,15.60
2018-09-13T22:52:12.593Z,14.77
2018-09-13T22:54:41.316Z,13.07
2018-09-13T22:57:09.748Z,13.43
2018-09-13T22:59:38.109Z,11.30
2018-09-13T23:02:06.676Z,11.27
2018-09-13T23:04:35.047Z,11.90
2018-09-13T23:07:03.408Z,13.77
2018-09-13T23:09:31.853Z,10.17
2018-09-13T23:12:00.264Z,12.43
2018-09-13T23:14:28.596Z,11.33
2018-09-13T23:16:56.950Z,13.03
2018-09-13T23:19:25.515Z,11.13
2018-09-13T23:21:53.940Z,11.23
2018-09-13T23:24:22.533Z,14.70
2018-09-13T23:26:51.260Z,14.80
2018-09-13T23:29:19.720Z,10.73
2018-09-13T23:31:48.068Z,14.63
2018-09-13T23:34:17.938Z,15.40
2018-09-13T23:36:46.528Z,14.53
2018-09-13T23:39:15.010Z,13.10
2018-09-13T23:41:44.340Z,12.07
2018-09-13T23:44:12.696Z,15.10
2018-09-13T23:46:41.076Z,15.87
2018-09-13T23:49:09.598Z,13.43
2018-09-13T23:51:38.184Z,14.90
2018-09-13T23:54:06.660Z,12.73
2018-09-13T23:56:35.219Z,14.87
2018-09-13T23:59:03.649Z,13.00
